Tropical Cyclones
[Index]
Main Index Home Page Stock Weather Photos Extreme Storms Discussion Storm News and Storm Chasing Reports Tropical Cyclones / Hurricanes / Typhoons Weather Data and Links Wild Fires / Bushfires Weather Observation Techniques Weather Picture Catalogue Tornado Pictures and Reports Stock Video Footage and DVDs for sale
Season 1997-1998 Tropical Cyclone TIFFANY Track Map
Season 1997-1998 Summaries: [BoM-AU] [JTWC-AU] [JTWC-SIO] [JTWC-SPAC] [JTWC-SH]
<<- Previous TC | JTWC 1997-1998 Season | Next TC ->>

click for intensity scale information  Lat/long Grid: Show Hide

 Date Labels: Show Hide

Joint Typhoon Warning Centre Cyclone Data

Name: TIFFANY

22 Jan 1998 12:00 UTC to 01 Feb 1998 12:00 UTC

    date/time    lat    long     hPa   cat  kts
1998-01-22 12   17.1   125.6                  15          
1998-01-22 18   16.9   125.2                  15          
1998-01-23 00   16.7   124.9                  15          
1998-01-23 06   16.6   124.6                  20          
1998-01-23 12   16.6   124.3                  20          
1998-01-23 18   16.7   124.0                  25          
1998-01-24 00   16.8   123.7                  25          
1998-01-24 06   16.9   123.2                  25          
1998-01-24 12   17.0   122.6                  30          
1998-01-24 18   17.1   122.0                  35          
1998-01-25 00   17.2   121.3            1     50          
1998-01-25 06   17.4   120.6            1     50          
1998-01-25 12   17.7   119.9            1     50          
1998-01-25 18   17.9   119.4            2     55          
1998-01-26 00   18.1   119.0            2     65          
1998-01-26 06   18.4   118.6            3     80          
1998-01-26 12   18.5   118.1            3     95          
1998-01-26 18   18.5   117.7            4    115          
1998-01-27 00   18.8   117.3            4    120          
1998-01-27 06   19.0   116.7            4    120          
1998-01-27 12   19.2   115.8            4    120          
1998-01-27 18   19.2   114.9            4    115          
1998-01-28 00   19.4   114.0            4    110          
1998-01-28 06   19.5   113.1            4    115          
1998-01-28 12   19.5   112.0            4    115          
1998-01-28 18   19.5   110.9            4    105          
1998-01-29 00   19.5   110.0            3     95          
1998-01-29 06   19.6   109.5            3     80          
1998-01-29 12   19.7   109.1            2     65          
1998-01-29 18   19.6   108.7            1     50          
1998-01-30 00   19.5   108.2            1     40          
1998-01-30 06   19.4   107.6                  35          
1998-01-30 12   19.4   107.0                  35          
1998-01-30 18   19.4   106.5                  30          
1998-01-31 00   19.4   106.3                  30          
1998-01-31 06   19.4   106.1                  25          
1998-01-31 12   19.4   105.9                  25          
1998-01-31 18   19.1   105.5                  25          
1998-02-01 00   18.8   105.0                  25          
1998-02-01 06   18.2   104.6                  20          
1998-02-01 12   17.6   104.2                  25          
Winds are 1-min average.

Tropical cyclone tracks developed by Michael Bath using data from the Joint Typhoon Warning Centre Best Tracks and Google Maps.


[Australian Severe Weather index] [Copyright Notice] [Email Contacts] [Search This Site] [Privacy Policy]
Document: tropical_cyclone_tiffany.htm Updated: 18 September 2016